createdAt,value
2019-03-30T00:01:40.263Z,11.80
2019-03-30T00:04:08.902Z,11.80
2019-03-30T00:06:37.620Z,11.70
2019-03-30T00:09:08.119Z,11.50
2019-03-30T00:11:37.027Z,11.30
2019-03-30T00:14:05.791Z,11.40
2019-03-30T00:16:34.415Z,11.50
2019-03-30T00:19:03.157Z,11.40
2019-03-30T00:21:31.897Z,11.40
2019-03-30T00:24:00.561Z,11.40
2019-03-30T00:26:29.215Z,11.40
2019-03-30T00:28:57.925Z,11.40
2019-03-30T00:31:26.594Z,11.40
2019-03-30T00:33:58.307Z,11.20
2019-03-30T00:36:27.038Z,11.00
2019-03-30T00:38:55.736Z,10.90
2019-03-30T00:41:24.467Z,10.90
2019-03-30T00:43:53.166Z,10.80
2019-03-30T00:46:21.886Z,10.80
2019-03-30T00:48:50.546Z,10.80
2019-03-30T00:51:19.272Z,10.80
2019-03-30T00:53:47.922Z,10.60
2019-03-30T00:56:16.569Z,10.50
2019-03-30T00:58:45.343Z,10.50
2019-03-30T01:01:14.062Z,10.40
2019-03-30T01:03:42.878Z,10.50
2019-03-30T01:06:11.713Z,10.50
2019-03-30T01:08:40.523Z,10.50
2019-03-30T01:11:09.317Z,10.40
2019-03-30T01:13:38.110Z,10.40
2019-03-30T01:16:06.835Z,10.40
2019-03-30T01:18:35.573Z,10.40
2019-03-30T01:21:04.371Z,10.40
2019-03-30T01:23:33.106Z,10.40
2019-03-30T01:26:01.765Z,10.40
2019-03-30T01:28:30.493Z,10.50
2019-03-30T01:30:59.218Z,10.60
2019-03-30T01:33:27.905Z,10.70
2019-03-30T01:35:56.559Z,10.60
2019-03-30T01:38:25.300Z,10.60
2019-03-30T01:40:54.001Z,10.70
2019-03-30T01:43:22.728Z,10.60
2019-03-30T01:45:51.458Z,10.30
2019-03-30T01:48:20.245Z,10.30
2019-03-30T01:50:48.967Z,10.30
2019-03-30T01:53:17.622Z,10.30
2019-03-30T01:55:46.406Z,10.30
2019-03-30T01:58:15.005Z,10.30
2019-03-30T02:00:43.674Z,10.20
2019-03-30T02:03:12.395Z,10.20
2019-03-30T02:05:41.068Z,10.10
2019-03-30T02:08:09.798Z,10.10
2019-03-30T02:10:44.384Z,10.10
2019-03-30T02:13:13.098Z,10.10
2019-03-30T02:15:41.901Z,10.00
2019-03-30T02:18:10.696Z,10.10
2019-03-30T02:20:46.956Z,10.20
2019-03-30T02:23:15.939Z,10.20
2019-03-30T02:25:44.670Z,10.10
2019-03-30T02:28:13.486Z,10.10
2019-03-30T02:30:42.199Z,10.00
2019-03-30T02:33:10.859Z,9.90
2019-03-30T02:35:39.983Z,9.90
2019-03-30T02:38:08.723Z,9.80
2019-03-30T02:40:37.362Z,9.70
2019-03-30T02:43:06.234Z,9.70
2019-03-30T02:45:34.972Z,9.70
2019-03-30T02:48:03.707Z,9.80
2019-03-30T02:50:48.563Z,9.80
2019-03-30T02:53:02.877Z,9.70
2019-03-30T02:55:31.610Z,9.60
2019-03-30T02:58:00.399Z,9.60
2019-03-30T03:00:29.219Z,9.60
2019-03-30T03:02:57.986Z,9.60
2019-03-30T03:05:26.789Z,9.60
2019-03-30T03:07:55.511Z,9.70
2019-03-30T03:10:24.417Z,9.80
2019-03-30T03:12:53.193Z,9.80
2019-03-30T03:15:21.938Z,9.80
2019-03-30T03:17:50.600Z,9.80
2019-03-30T03:20:19.350Z,9.90
2019-03-30T03:22:48.002Z,9.90
2019-03-30T03:25:16.639Z,9.80
2019-03-30T03:27:45.452Z,9.70
2019-03-30T03:30:16.191Z,9.60
2019-03-30T03:32:45.124Z,9.50
2019-03-30T03:35:13.985Z,9.50
2019-03-30T03:37:46.203Z,9.50
2019-03-30T03:40:13.374Z,9.50
2019-03-30T03:42:42.290Z,9.50
2019-03-30T03:45:11.175Z,9.50
2019-03-30T03:47:39.896Z,9.40
2019-03-30T03:50:10.244Z,9.50
2019-03-30T03:52:40.161Z,9.50
2019-03-30T03:55:08.956Z,9.50
2019-03-30T03:57:40.564Z,9.40
2019-03-30T04:00:11.151Z,9.50
2019-03-30T04:02:39.986Z,9.60
2019-03-30T04:05:09.666Z,9.70
2019-03-30T04:07:40.728Z,9.70
2019-03-30T04:10:09.620Z,9.50
2019-03-30T04:12:38.336Z,9.50
2019-03-30T04:15:11.544Z,9.50
2019-03-30T04:17:40.269Z,9.50
2019-03-30T04:20:09.083Z,9.50
2019-03-30T04:22:37.804Z,9.40
2019-03-30T04:25:07.411Z,9.30
2019-03-30T04:27:36.043Z,9.20
2019-03-30T04:30:06.560Z,9.20
2019-03-30T04:32:35.360Z,9.10
2019-03-30T04:35:05.594Z,9.10
2019-03-30T04:37:34.343Z,9.10
2019-03-30T04:40:03.361Z,9.10
2019-03-30T04:42:31.990Z,9.30
2019-03-30T04:45:00.656Z,9.30
2019-03-30T04:47:29.466Z,9.40
2019-03-30T04:49:58.251Z,9.40
2019-03-30T04:52:27.006Z,9.40
2019-03-30T04:54:56.107Z,9.30
2019-03-30T04:57:24.839Z,9.20
2019-03-30T04:59:54.822Z,9.10
2019-03-30T05:02:23.645Z,9.00
2019-03-30T05:04:52.370Z,8.90
2019-03-30T05:07:21.186Z,8.90
2019-03-30T05:09:49.897Z,9.10
2019-03-30T05:12:18.558Z,9.10
2019-03-30T05:14:47.269Z,9.00
2019-03-30T05:17:15.959Z,8.90
2019-03-30T05:19:44.759Z,8.90
2019-03-30T05:22:16.464Z,8.90
2019-03-30T05:24:43.857Z,8.90
2019-03-30T05:27:12.628Z,9.00
2019-03-30T05:29:41.358Z,9.10
2019-03-30T05:32:11.545Z,9.20
2019-03-30T05:34:40.201Z,9.30
2019-03-30T05:37:08.857Z,9.20
2019-03-30T05:39:37.512Z,9.30
2019-03-30T05:42:06.227Z,9.30
2019-03-30T05:44:34.964Z,9.30
2019-03-30T05:47:03.674Z,9.40
2019-03-30T05:49:32.362Z,9.40
2019-03-30T05:52:01.023Z,9.60
2019-03-30T05:54:29.675Z,9.80
2019-03-30T05:56:58.347Z,10.00
2019-03-30T05:59:27.007Z,10.10
2019-03-30T06:01:55.665Z,10.20
2019-03-30T06:04:24.330Z,10.20
2019-03-30T06:06:52.988Z,10.30
2019-03-30T06:09:21.645Z,10.40
2019-03-30T06:11:50.310Z,10.50
2019-03-30T06:14:18.976Z,10.50
2019-03-30T06:16:47.629Z,10.60
2019-03-30T06:19:16.292Z,10.70
2019-03-30T06:21:44.946Z,10.80
2019-03-30T06:24:13.685Z,10.90
2019-03-30T06:26:42.361Z,10.90
2019-03-30T06:29:11.010Z,11.00
2019-03-30T06:31:39.662Z,11.10
2019-03-30T06:34:08.398Z,11.20
2019-03-30T06:36:37.122Z,11.30
2019-03-30T06:39:06.322Z,11.30
2019-03-30T06:41:34.983Z,11.40
2019-03-30T06:44:03.812Z,11.50
2019-03-30T06:46:32.549Z,11.60
2019-03-30T06:49:01.243Z,11.60
2019-03-30T06:51:29.955Z,11.70
2019-03-30T06:53:59.327Z,11.70
2019-03-30T06:56:28.007Z,11.60
2019-03-30T06:58:56.902Z,11.70
2019-03-30T07:01:25.731Z,11.60
2019-03-30T07:03:54.813Z,11.70
2019-03-30T07:06:24.018Z,11.60
2019-03-30T07:08:54.379Z,11.60
2019-03-30T07:11:25.624Z,11.70
2019-03-30T07:13:57.344Z,11.80
2019-03-30T07:16:28.247Z,11.80
2019-03-30T07:19:00.106Z,11.80
2019-03-30T07:21:30.757Z,11.80
2019-03-30T07:23:59.477Z,11.90
2019-03-30T07:26:28.217Z,11.90
2019-03-30T07:28:56.877Z,11.90
2019-03-30T07:31:25.783Z,12.10
2019-03-30T07:33:54.431Z,12.10
2019-03-30T07:36:23.159Z,12.20
2019-03-30T07:38:51.813Z,12.20
2019-03-30T07:41:20.508Z,12.10
2019-03-30T07:43:49.223Z,12.20
2019-03-30T07:46:21.891Z,12.30
2019-03-30T07:48:50.593Z,12.30
2019-03-30T07:51:19.267Z,12.50
2019-03-30T07:53:47.999Z,12.60
2019-03-30T07:56:17.011Z,12.80
2019-03-30T07:58:45.717Z,12.90
2019-03-30T08:01:14.452Z,13.10
2019-03-30T08:03:43.223Z,13.20
2019-03-30T08:06:11.884Z,13.40
2019-03-30T08:08:40.614Z,13.50
2019-03-30T08:11:09.278Z,13.60
2019-03-30T08:13:37.936Z,13.70
2019-03-30T08:16:06.891Z,13.80
2019-03-30T08:18:35.748Z,14.10
2019-03-30T08:21:04.674Z,14.40
2019-03-30T08:23:40.347Z,14.60
2019-03-30T08:26:03.756Z,14.60
2019-03-30T08:28:32.405Z,14.40
2019-03-30T08:31:01.428Z,14.50
2019-03-30T08:33:30.119Z,14.50
2019-03-30T08:35:58.924Z,14.70
2019-03-30T08:38:27.564Z,14.80
2019-03-30T08:40:56.218Z,14.90
2019-03-30T08:43:24.883Z,15.00
2019-03-30T08:45:53.536Z,15.00
2019-03-30T08:48:22.205Z,15.20
2019-03-30T08:50:50.923Z,15.30
2019-03-30T08:53:19.577Z,15.50
2019-03-30T08:55:48.234Z,15.80
2019-03-30T08:58:16.904Z,15.90
2019-03-30T09:00:45.559Z,16.00
2019-03-30T09:03:14.292Z,16.00
2019-03-30T09:05:43.098Z,16.00
2019-03-30T09:08:11.886Z,16.00
2019-03-30T09:10:40.585Z,16.10
2019-03-30T09:13:09.307Z,16.30
2019-03-30T09:15:37.982Z,16.40
2019-03-30T09:18:06.710Z,16.60
2019-03-30T09:20:35.378Z,16.70
2019-03-30T09:23:04.104Z,16.90
2019-03-30T09:25:32.764Z,17.10
2019-03-30T09:28:01.410Z,17.10
2019-03-30T09:30:30.102Z,17.20
2019-03-30T09:32:58.763Z,17.10
2019-03-30T09:35:27.412Z,17.00
2019-03-30T09:37:56.078Z,17.40
2019-03-30T09:40:24.801Z,18.00
2019-03-30T09:42:53.479Z,19.00
2019-03-30T09:45:22.194Z,19.60
2019-03-30T09:47:50.915Z,20.20
2019-03-30T09:50:19.577Z,20.50
2019-03-30T09:52:48.296Z,20.50
2019-03-30T09:55:17.020Z,20.80
2019-03-30T09:57:45.739Z,20.90
2019-03-30T10:00:14.530Z,21.20
2019-03-30T10:02:43.180Z,21.60
2019-03-30T10:05:12.503Z,21.80
2019-03-30T10:07:41.159Z,22.30
2019-03-30T10:10:10.054Z,22.50
2019-03-30T10:12:38.709Z,22.30
2019-03-30T10:15:08.051Z,22.50
2019-03-30T10:17:36.713Z,22.90
2019-03-30T10:20:07.213Z,23.40
2019-03-30T10:22:35.853Z,23.80
2019-03-30T10:25:06.065Z,23.60
2019-03-30T10:27:34.781Z,23.00
2019-03-30T10:30:04.337Z,23.40
2019-03-30T10:32:33.043Z,23.90
2019-03-30T10:35:01.715Z,24.40
2019-03-30T10:37:30.424Z,25.10
2019-03-30T10:39:59.094Z,25.40
2019-03-30T10:42:27.786Z,25.50
2019-03-30T10:44:56.439Z,24.60
2019-03-30T10:47:25.102Z,25.00
2019-03-30T10:49:53.783Z,25.00
2019-03-30T10:52:22.447Z,25.30
2019-03-30T10:54:52.811Z,26.00
2019-03-30T10:57:21.415Z,26.50
2019-03-30T10:59:50.201Z,26.10
2019-03-30T11:02:18.920Z,26.20
2019-03-30T11:04:47.602Z,26.70
2019-03-30T11:07:16.384Z,26.00
2019-03-30T11:09:45.249Z,26.50
2019-03-30T11:12:13.952Z,27.50
2019-03-30T11:14:42.703Z,28.10
2019-03-30T11:17:11.451Z,27.40
2019-03-30T11:19:40.115Z,27.20
2019-03-30T11:22:08.782Z,27.20
2019-03-30T11:24:37.423Z,27.90
2019-03-30T11:27:06.081Z,27.60
2019-03-30T11:29:34.754Z,27.30
2019-03-30T11:32:03.419Z,27.10
2019-03-30T11:34:32.081Z,27.20
2019-03-30T11:37:00.810Z,28.10
2019-03-30T11:39:29.577Z,27.60
2019-03-30T11:41:58.236Z,27.90
2019-03-30T11:44:26.882Z,28.20
2019-03-30T11:46:55.546Z,28.00
2019-03-30T11:49:24.276Z,28.20
2019-03-30T11:51:53.011Z,28.50
2019-03-30T11:54:21.651Z,28.50
2019-03-30T11:56:50.393Z,27.70
2019-03-30T11:59:19.041Z,28.00
2019-03-30T12:01:47.707Z,27.90
2019-03-30T12:04:17.913Z,28.60
2019-03-30T12:06:46.733Z,29.30
2019-03-30T12:09:15.462Z,28.20
2019-03-30T12:11:44.141Z,27.70
2019-03-30T12:14:12.770Z,27.80
2019-03-30T12:16:41.430Z,27.80
2019-03-30T12:19:10.084Z,28.10
2019-03-30T12:21:38.862Z,27.90
2019-03-30T12:24:07.582Z,28.10
2019-03-30T12:26:36.248Z,27.70
2019-03-30T12:29:05.660Z,28.30
2019-03-30T12:31:34.315Z,28.40
2019-03-30T12:34:02.982Z,28.50
2019-03-30T12:36:31.710Z,28.90
2019-03-30T12:39:00.513Z,29.50
2019-03-30T12:41:29.315Z,30.00
2019-03-30T12:43:58.086Z,29.70
2019-03-30T12:46:26.874Z,29.20
2019-03-30T12:48:55.534Z,28.90
2019-03-30T12:51:24.219Z,28.80
2019-03-30T12:53:52.857Z,28.80
2019-03-30T12:56:21.591Z,28.70
2019-03-30T12:58:50.315Z,28.80
2019-03-30T13:01:18.982Z,28.30
2019-03-30T13:03:47.710Z,27.80
2019-03-30T13:06:16.381Z,27.90
2019-03-30T13:08:45.047Z,28.60
2019-03-30T13:11:13.782Z,29.10
2019-03-30T13:13:42.451Z,29.90
2019-03-30T13:16:11.153Z,29.90
2019-03-30T13:18:39.802Z,29.70
2019-03-30T13:21:08.534Z,28.20
2019-03-30T13:23:37.202Z,28.50
2019-03-30T13:26:05.861Z,28.70
2019-03-30T13:28:34.549Z,29.00
2019-03-30T13:31:03.249Z,28.40
2019-03-30T13:33:31.927Z,28.80
2019-03-30T13:36:00.590Z,29.90
2019-03-30T13:38:29.249Z,30.00
2019-03-30T13:40:57.910Z,29.50
2019-03-30T13:43:26.586Z,29.00
2019-03-30T13:45:55.236Z,29.30
2019-03-30T13:48:23.934Z,29.10
2019-03-30T13:50:52.583Z,29.20
2019-03-30T13:53:21.262Z,28.90
2019-03-30T13:55:49.993Z,28.60
2019-03-30T13:58:18.781Z,28.10
2019-03-30T14:00:47.520Z,28.40
2019-03-30T14:03:16.219Z,28.00
2019-03-30T14:05:44.886Z,27.80
2019-03-30T14:08:13.539Z,28.10
2019-03-30T14:10:42.214Z,27.90
2019-03-30T14:13:10.900Z,28.90
2019-03-30T14:15:39.567Z,29.70
2019-03-30T14:18:08.222Z,30.60
2019-03-30T14:20:36.970Z,31.10
2019-03-30T14:23:05.689Z,31.40
2019-03-30T14:25:34.356Z,32.00
2019-03-30T14:28:03.020Z,32.70
2019-03-30T14:30:31.675Z,32.20
2019-03-30T14:33:00.334Z,30.70
2019-03-30T14:35:29.072Z,31.20
2019-03-30T14:37:57.844Z,30.70
2019-03-30T14:40:26.562Z,31.80
2019-03-30T14:42:55.230Z,32.00
2019-03-30T14:45:23.953Z,32.60
2019-03-30T14:47:52.613Z,32.00
2019-03-30T14:50:21.339Z,31.90
2019-03-30T14:52:49.993Z,31.70
2019-03-30T14:55:18.651Z,32.30
2019-03-30T14:57:47.401Z,32.40
2019-03-30T15:00:16.337Z,31.70
2019-03-30T15:02:45.130Z,32.10
2019-03-30T15:05:14.137Z,31.60
2019-03-30T15:07:42.862Z,32.30
2019-03-30T15:10:12.754Z,30.90
2019-03-30T15:12:41.504Z,30.40
2019-03-30T15:15:11.401Z,31.10
2019-03-30T15:17:41.009Z,31.80
2019-03-30T15:20:12.129Z,32.20
2019-03-30T15:22:40.782Z,32.70
2019-03-30T15:25:10.586Z,33.30
2019-03-30T15:27:51.246Z,31.90
2019-03-30T15:30:19.898Z,31.20
2019-03-30T15:32:48.643Z,31.40
2019-03-30T15:35:17.506Z,31.20
2019-03-30T15:37:46.239Z,31.40
2019-03-30T15:40:15.030Z,30.40
2019-03-30T15:42:43.690Z,29.80
2019-03-30T15:45:12.681Z,31.00
2019-03-30T15:47:41.361Z,30.80
2019-03-30T15:50:10.796Z,30.00
2019-03-30T15:52:39.519Z,31.00
2019-03-30T15:55:08.528Z,31.90
2019-03-30T15:57:37.308Z,32.30
2019-03-30T16:00:11.241Z,32.30
2019-03-30T16:02:40.034Z,32.10
2019-03-30T16:05:08.838Z,31.70
2019-03-30T16:07:37.506Z,30.30
2019-03-30T16:10:06.814Z,29.10
2019-03-30T16:12:35.539Z,27.60
2019-03-30T16:15:07.864Z,27.30
2019-03-30T16:17:38.046Z,26.70
2019-03-30T16:20:08.599Z,26.30
2019-03-30T16:22:37.310Z,25.90
2019-03-30T16:25:07.481Z,25.70
2019-03-30T16:27:39.052Z,25.20
2019-03-30T16:30:07.734Z,24.90
2019-03-30T16:32:36.483Z,24.20
2019-03-30T16:35:06.054Z,24.10
2019-03-30T16:37:34.717Z,23.40
2019-03-30T16:40:03.911Z,23.00
2019-03-30T16:42:32.647Z,22.90
2019-03-30T16:45:01.387Z,23.10
2019-03-30T16:47:30.049Z,23.00
2019-03-30T16:49:58.781Z,23.10
2019-03-30T16:52:27.465Z,23.10
2019-03-30T16:54:56.204Z,23.10
2019-03-30T16:57:24.858Z,22.80
2019-03-30T16:59:53.578Z,22.70
2019-03-30T17:02:22.276Z,22.50
2019-03-30T17:04:50.961Z,22.30
2019-03-30T17:07:19.687Z,22.10
2019-03-30T17:09:48.442Z,22.00
2019-03-30T17:12:17.175Z,21.90
2019-03-30T17:14:45.833Z,21.80
2019-03-30T17:17:14.493Z,21.60
2019-03-30T17:19:43.161Z,21.50
2019-03-30T17:22:11.885Z,21.50
2019-03-30T17:24:40.550Z,21.30
2019-03-30T17:27:09.269Z,21.20
2019-03-30T17:29:37.963Z,21.10
2019-03-30T17:32:06.585Z,20.90
2019-03-30T17:34:35.288Z,20.90
2019-03-30T17:37:03.934Z,20.80
2019-03-30T17:39:32.589Z,20.80
2019-03-30T17:42:01.327Z,20.70
2019-03-30T17:44:30.045Z,20.70
2019-03-30T17:46:58.708Z,20.60
2019-03-30T17:49:27.462Z,20.60
2019-03-30T17:51:56.153Z,20.50
2019-03-30T17:54:24.865Z,20.30
2019-03-30T17:56:53.604Z,20.20
2019-03-30T17:59:23.826Z,20.20
2019-03-30T18:01:52.756Z,20.00
2019-03-30T18:04:21.521Z,19.80
2019-03-30T18:06:50.262Z,19.70
2019-03-30T18:09:18.966Z,19.60
2019-03-30T18:11:47.651Z,19.40
2019-03-30T18:14:16.314Z,19.30
2019-03-30T18:16:44.977Z,19.20
2019-03-30T18:19:13.630Z,19.10
2019-03-30T18:21:42.348Z,19.00
2019-03-30T18:24:10.998Z,19.00
2019-03-30T18:26:39.670Z,19.00
2019-03-30T18:29:08.334Z,18.90
2019-03-30T18:31:37.362Z,18.70
2019-03-30T18:34:06.078Z,18.70
2019-03-30T18:36:36.769Z,18.50
2019-03-30T18:39:09.976Z,18.40
2019-03-30T18:41:37.332Z,18.30
2019-03-30T18:44:05.980Z,18.20
2019-03-30T18:46:34.644Z,18.20
2019-03-30T18:49:03.313Z,18.10
2019-03-30T18:51:32.354Z,18.00
2019-03-30T18:54:02.267Z,18.00
2019-03-30T18:56:30.925Z,17.90
2019-03-30T18:58:59.594Z,17.80
2019-03-30T19:01:28.330Z,17.80
2019-03-30T19:03:57.042Z,17.70
2019-03-30T19:06:25.664Z,17.60
2019-03-30T19:08:54.349Z,17.50
2019-03-30T19:11:23.158Z,17.40
2019-03-30T19:13:51.822Z,17.30
2019-03-30T19:16:20.491Z,17.20
2019-03-30T19:18:49.226Z,17.10
2019-03-30T19:21:17.864Z,17.10
2019-03-30T19:23:46.525Z,17.00
2019-03-30T19:26:15.205Z,17.10
2019-03-30T19:28:55.657Z,17.00
2019-03-30T19:31:14.175Z,17.00
2019-03-30T19:33:42.897Z,16.90
2019-03-30T19:36:11.554Z,16.90
2019-03-30T19:38:40.221Z,16.90
2019-03-30T19:41:08.906Z,16.80
2019-03-30T19:43:37.548Z,16.80
2019-03-30T19:46:06.350Z,16.80
2019-03-30T19:48:36.924Z,16.70
2019-03-30T19:51:05.460Z,16.70
2019-03-30T19:53:34.134Z,16.70
2019-03-30T19:56:02.870Z,16.50
2019-03-30T19:58:31.642Z,16.40
2019-03-30T20:01:00.357Z,16.20
2019-03-30T20:03:29.099Z,16.20
2019-03-30T20:05:57.763Z,16.30
2019-03-30T20:08:26.500Z,16.30
2019-03-30T20:10:55.148Z,16.20
2019-03-30T20:13:24.413Z,16.20
2019-03-30T20:15:53.099Z,16.20
2019-03-30T20:18:21.821Z,16.30
2019-03-30T20:20:50.576Z,16.20
2019-03-30T20:23:19.221Z,16.00
2019-03-30T20:25:47.959Z,16.00
2019-03-30T20:28:16.667Z,16.10
2019-03-30T20:30:45.328Z,16.00
2019-03-30T20:33:14.062Z,16.00
2019-03-30T20:35:42.713Z,15.90
2019-03-30T20:38:11.371Z,15.80
2019-03-30T20:40:40.044Z,15.70
2019-03-30T20:43:08.710Z,15.50
2019-03-30T20:45:37.382Z,15.40
2019-03-30T20:48:06.108Z,15.30
2019-03-30T20:50:34.800Z,15.30
2019-03-30T20:53:03.549Z,15.20
2019-03-30T20:55:33.889Z,15.30
2019-03-30T20:58:02.572Z,15.30
2019-03-30T21:00:31.286Z,15.30
2019-03-30T21:02:59.961Z,15.40
2019-03-30T21:05:28.634Z,15.50
2019-03-30T21:07:59.854Z,15.50
2019-03-30T21:10:28.563Z,15.50
2019-03-30T21:12:57.224Z,15.30
2019-03-30T21:15:25.881Z,15.10
2019-03-30T21:17:54.565Z,14.90
2019-03-30T21:20:23.299Z,14.80
2019-03-30T21:22:51.982Z,14.70
2019-03-30T21:25:20.643Z,14.70
2019-03-30T21:27:49.357Z,14.50
2019-03-30T21:30:18.431Z,14.50
2019-03-30T21:32:47.095Z,14.40
2019-03-30T21:35:15.770Z,14.50
2019-03-30T21:37:44.439Z,14.40
2019-03-30T21:40:13.245Z,14.20
2019-03-30T21:42:41.902Z,14.00
2019-03-30T21:45:11.514Z,14.10
2019-03-30T21:47:40.170Z,14.30
2019-03-30T21:50:09.500Z,14.40
2019-03-30T21:52:38.158Z,14.40
2019-03-30T21:55:06.949Z,14.40
2019-03-30T21:57:35.718Z,14.50
2019-03-30T22:00:10.542Z,14.50
2019-03-30T22:02:37.135Z,14.40
2019-03-30T22:05:08.997Z,14.20
2019-03-30T22:07:37.731Z,14.00
2019-03-30T22:10:11.168Z,14.00
2019-03-30T22:12:42.004Z,14.00
2019-03-30T22:15:10.834Z,14.00
2019-03-30T22:17:39.493Z,14.10
2019-03-30T22:20:08.291Z,14.20
2019-03-30T22:22:36.969Z,14.20
2019-03-30T22:25:06.263Z,14.10
2019-03-30T22:27:34.917Z,14.00
2019-03-30T22:30:05.590Z,13.70
2019-03-30T22:32:34.316Z,13.70
2019-03-30T22:35:03.125Z,13.60
2019-03-30T22:37:31.853Z,13.50
2019-03-30T22:40:00.541Z,13.30
2019-03-30T22:42:29.262Z,13.50
2019-03-30T22:44:58.045Z,13.60
2019-03-30T22:47:26.714Z,13.60
2019-03-30T22:49:55.392Z,13.70
2019-03-30T22:52:24.053Z,13.80
2019-03-30T22:54:52.789Z,13.70
2019-03-30T22:57:21.437Z,13.80
2019-03-30T22:59:50.183Z,13.80
2019-03-30T23:02:18.934Z,13.80
2019-03-30T23:04:47.627Z,13.80
2019-03-30T23:07:16.392Z,13.70
2019-03-30T23:09:45.082Z,13.60
2019-03-30T23:12:13.732Z,13.60
2019-03-30T23:14:42.561Z,13.30
2019-03-30T23:17:11.320Z,13.20
2019-03-30T23:19:40.047Z,13.20
2019-03-30T23:22:08.769Z,13.30
2019-03-30T23:24:37.448Z,13.20
2019-03-30T23:30:33.578Z,13.20
2019-03-30T23:33:19.366Z,13.30
2019-03-30T23:35:48.154Z,13.30
2019-03-30T23:41:52.047Z,13.30
2019-03-30T23:44:23.815Z,13.10
2019-03-30T23:46:52.607Z,13.00
